createdAt,value
2023-04-15T00:00:58.328Z,1.95
2023-04-15T00:03:25.383Z,2.20
2023-04-15T00:05:52.120Z,2.20
2023-04-15T00:08:19.445Z,2.10
2023-04-15T00:10:46.814Z,2.10
2023-04-15T00:13:13.270Z,2.20
2023-04-15T00:15:39.822Z,2.10
2023-04-15T00:18:07.443Z,2.47
2023-04-15T00:20:34.294Z,2.28
2023-04-15T00:23:02.631Z,2.20
2023-04-15T00:25:29.145Z,2.20
2023-04-15T00:27:55.593Z,2.15
2023-04-15T00:30:23.914Z,2.08
2023-04-15T00:32:50.846Z,1.98
2023-04-15T00:35:21.653Z,1.88
2023-04-15T00:37:49.814Z,2.10
2023-04-15T00:40:17.819Z,2.47
2023-04-15T00:42:44.893Z,2.10
2023-04-15T00:45:11.545Z,2.10
2023-04-15T00:47:39.263Z,2.10
2023-04-15T00:50:06.103Z,2.10
2023-04-15T00:52:32.591Z,2.00
2023-04-15T00:54:59.677Z,1.80
2023-04-15T00:57:27.790Z,1.95
2023-04-15T00:59:55.451Z,1.92
2023-04-15T01:02:22.449Z,1.95
2023-04-15T01:04:49.201Z,2.25
2023-04-15T01:07:16.222Z,1.75
2023-04-15T01:09:43.066Z,1.90
2023-04-15T01:12:12.833Z,2.03
2023-04-15T01:14:39.534Z,1.90
2023-04-15T01:17:05.964Z,1.80
2023-04-15T01:19:32.817Z,2.15
2023-04-15T01:21:59.237Z,2.10
2023-04-15T01:24:27.132Z,2.10
2023-04-15T01:26:54.371Z,1.85
2023-04-15T01:29:20.986Z,2.00
2023-04-15T01:31:55.015Z,2.00
2023-04-15T01:34:22.418Z,2.00
2023-04-15T01:36:48.901Z,1.88
2023-04-15T01:39:15.349Z,2.22
2023-04-15T01:41:42.447Z,2.10
2023-04-15T01:44:09.026Z,2.30
2023-04-15T01:46:35.830Z,2.22
2023-04-15T01:49:02.599Z,1.88
2023-04-15T01:51:29.214Z,2.08
2023-04-15T01:53:57.127Z,1.90
2023-04-15T01:56:26.867Z,1.90
2023-04-15T01:58:53.462Z,1.85
2023-04-15T02:01:20.253Z,2.08
2023-04-15T02:03:47.102Z,1.80
2023-04-15T02:06:15.100Z,2.03
2023-04-15T02:08:41.751Z,2.03
2023-04-15T02:11:08.448Z,2.20
2023-04-15T02:13:34.967Z,2.00
2023-04-15T02:16:01.606Z,1.80
2023-04-15T02:18:28.273Z,1.90
2023-04-15T02:20:56.398Z,1.80
2023-04-15T02:23:22.825Z,2.17
2023-04-15T02:25:53.764Z,1.83
2023-04-15T02:28:21.104Z,2.03
2023-04-15T02:30:48.401Z,1.88
2023-04-15T02:33:14.998Z,1.80
2023-04-15T02:35:44.168Z,1.80
2023-04-15T02:38:11.455Z,1.60
2023-04-15T02:43:05.300Z,1.90
2023-04-15T02:45:31.958Z,1.73
2023-04-15T02:48:03.938Z,1.85
2023-04-15T02:50:31.612Z,1.95
2023-04-15T02:52:58.113Z,1.90
2023-04-15T02:55:24.592Z,1.80
2023-04-15T02:57:51.033Z,1.88
2023-04-15T03:00:17.674Z,1.90
2023-04-15T03:02:47.073Z,2.15
2023-04-15T03:05:14.383Z,2.22
2023-04-15T03:10:13.961Z,2.17
2023-04-15T03:12:40.893Z,1.90
2023-04-15T03:15:10.260Z,1.77
2023-04-15T03:17:41.765Z,2.03
2023-04-15T03:20:08.982Z,1.77
2023-04-15T03:22:35.656Z,2.10
2023-04-15T03:25:03.069Z,2.00
2023-04-15T03:27:29.600Z,1.70
2023-04-15T03:29:59.858Z,1.80
2023-04-15T03:32:28.543Z,1.83
2023-04-15T03:34:54.971Z,1.80
2023-04-15T03:37:21.603Z,1.90
2023-04-15T03:39:48.300Z,1.70
2023-04-15T03:42:14.689Z,1.50
2023-04-15T03:44:41.305Z,1.90
2023-04-15T03:47:07.764Z,2.00
2023-04-15T03:49:34.368Z,1.75
2023-04-15T03:52:00.819Z,2.15
2023-04-15T03:54:27.215Z,2.15
2023-04-15T03:56:53.617Z,1.73
2023-04-15T03:59:20.035Z,1.77
2023-04-15T04:01:46.827Z,2.00
2023-04-15T04:04:13.510Z,1.90
2023-04-15T04:06:40.131Z,2.10
2023-04-15T04:09:06.682Z,1.95
2023-04-15T04:11:33.126Z,1.60
2023-04-15T04:13:59.566Z,1.38
2023-04-15T04:16:26.548Z,1.50
2023-04-15T04:18:53.124Z,1.90
2023-04-15T04:21:19.993Z,1.70
2023-04-15T04:23:46.528Z,1.55
2023-04-15T04:26:12.990Z,1.67
2023-04-15T04:28:40.629Z,1.63
2023-04-15T04:31:07.469Z,1.60
2023-04-15T04:33:33.925Z,1.52
2023-04-15T04:36:00.515Z,1.60
2023-04-15T04:38:26.999Z,1.85
2023-04-15T04:40:53.934Z,1.60
2023-04-15T04:43:20.363Z,1.60
2023-04-15T04:45:47.278Z,1.52
2023-04-15T04:48:13.698Z,2.22
2023-04-15T04:50:40.185Z,1.95
2023-04-15T04:53:06.625Z,1.95
2023-04-15T04:55:33.197Z,1.67
2023-04-15T04:57:59.700Z,2.15
2023-04-15T05:00:26.117Z,1.70
2023-04-15T05:02:52.701Z,1.55
2023-04-15T05:05:19.250Z,1.50
2023-04-15T05:07:45.710Z,1.40
2023-04-15T05:10:12.220Z,1.70
2023-04-15T05:12:38.773Z,1.67
2023-04-15T05:15:06.013Z,1.50
2023-04-15T05:17:33.401Z,1.70
2023-04-15T05:19:59.943Z,1.80
2023-04-15T05:22:26.548Z,1.55
2023-04-15T05:24:53.056Z,1.60
2023-04-15T05:27:19.470Z,1.70
2023-04-15T05:29:46.363Z,1.90
2023-04-15T05:32:12.766Z,1.80
2023-04-15T05:34:39.206Z,1.67
2023-04-15T05:37:05.880Z,1.60
2023-04-15T05:39:32.760Z,1.65
2023-04-15T05:41:59.859Z,1.50
2023-04-15T05:44:26.896Z,1.60
2023-04-15T05:46:53.342Z,1.70
2023-04-15T05:49:19.760Z,1.60
2023-04-15T05:51:47.417Z,1.70
2023-04-15T05:54:13.869Z,1.60
2023-04-15T05:56:40.464Z,1.65
2023-04-15T05:59:07.545Z,1.80
2023-04-15T06:01:34.275Z,1.70
2023-04-15T06:04:00.728Z,1.92
2023-04-15T06:06:27.391Z,1.80
2023-04-15T06:08:55.765Z,1.88
2023-04-15T06:11:22.265Z,1.65
2023-04-15T06:13:48.680Z,1.80
2023-04-15T06:16:15.430Z,1.75
2023-04-15T06:18:41.925Z,1.60
2023-04-15T06:21:08.369Z,1.80
2023-04-15T06:23:35.817Z,1.83
2023-04-15T06:26:02.569Z,1.70
2023-04-15T06:28:29.022Z,1.70
2023-04-15T06:30:55.666Z,1.77
2023-04-15T06:33:22.071Z,1.55
2023-04-15T06:35:49.660Z,1.50
2023-04-15T06:38:16.480Z,1.60
2023-04-15T06:40:43.024Z,1.70
2023-04-15T06:43:09.760Z,1.60
2023-04-15T06:45:36.247Z,1.60
2023-04-15T06:48:02.681Z,1.80
2023-04-15T06:50:29.188Z,1.60
2023-04-15T06:52:55.846Z,1.67
2023-04-15T06:55:22.354Z,1.65
2023-04-15T06:57:48.889Z,1.77
2023-04-15T07:00:15.693Z,1.55
2023-04-15T07:02:42.280Z,1.52
2023-04-15T07:05:09.070Z,1.50
2023-04-15T07:07:36.239Z,1.55
2023-04-15T07:10:03.773Z,1.77
2023-04-15T07:14:57.143Z,1.60
2023-04-15T07:17:23.686Z,2.40
2023-04-15T07:19:50.212Z,2.13
2023-04-15T07:22:16.649Z,2.30
2023-04-15T07:24:43.170Z,2.45
2023-04-15T07:27:09.639Z,1.80
2023-04-15T07:29:36.198Z,1.70
2023-04-15T07:32:02.601Z,1.90
2023-04-15T07:34:30.652Z,1.63
2023-04-15T07:36:57.994Z,1.90
2023-04-15T07:39:24.433Z,2.00
2023-04-15T07:41:51.154Z,2.00
2023-04-15T07:44:17.550Z,1.90
2023-04-15T07:46:44.081Z,2.30
2023-04-15T07:49:10.536Z,1.60
2023-04-15T07:51:37.309Z,1.50
2023-04-15T07:54:04.235Z,1.60
2023-04-15T07:56:31.100Z,1.65
2023-04-15T07:58:57.607Z,1.55
2023-04-15T08:01:24.036Z,1.30
2023-04-15T08:03:51.084Z,1.60
2023-04-15T08:06:17.652Z,1.58
2023-04-15T08:08:44.179Z,1.80
2023-04-15T08:11:10.832Z,1.35
2023-04-15T08:13:37.252Z,1.40
2023-04-15T08:16:22.509Z,1.58
2023-04-15T08:21:16.006Z,1.25
2023-04-15T08:23:43.090Z,1.20
2023-04-15T08:26:09.744Z,1.20
2023-04-15T08:28:37.178Z,1.40
2023-04-15T08:31:03.968Z,1.48
2023-04-15T08:33:30.721Z,1.15
2023-04-15T08:35:57.721Z,1.70
2023-04-15T08:38:24.262Z,1.80
2023-04-15T08:40:50.823Z,1.40
2023-04-15T08:43:37.969Z,1.50
2023-04-15T08:46:04.421Z,1.33
2023-04-15T08:48:32.932Z,1.35
2023-04-15T08:50:59.933Z,1.42
2023-04-15T08:53:26.493Z,3.22
2023-04-15T08:55:55.169Z,1.95
2023-04-15T08:58:21.633Z,1.50
2023-04-15T09:00:48.792Z,1.77
2023-04-15T09:05:42.396Z,1.58
2023-04-15T09:08:09.090Z,1.45
2023-04-15T09:10:36.776Z,1.50
2023-04-15T09:13:04.527Z,1.23
2023-04-15T09:15:32.946Z,1.70
2023-04-15T09:17:59.418Z,1.60
2023-04-15T09:20:26.363Z,1.65
2023-04-15T09:22:52.889Z,1.48
2023-04-15T09:25:22.462Z,1.58
2023-04-15T09:27:49.611Z,1.63
2023-04-15T09:30:16.812Z,1.60
2023-04-15T09:35:13.151Z,1.90
2023-04-15T09:37:39.569Z,1.80
2023-04-15T09:40:06.763Z,2.00
2023-04-15T09:45:12.181Z,2.00
2023-04-15T09:47:38.630Z,2.10
2023-04-15T09:50:05.419Z,1.80
2023-04-15T09:52:32.059Z,1.92
2023-04-15T09:54:59.252Z,1.90
2023-04-15T09:57:25.823Z,1.85
2023-04-15T09:59:52.525Z,2.00
2023-04-15T10:02:21.100Z,1.73
2023-04-15T10:04:48.609Z,1.90
2023-04-15T10:07:15.218Z,1.90
2023-04-15T10:09:42.225Z,1.80
2023-04-15T10:12:08.872Z,2.08
2023-04-15T10:14:36.382Z,1.80
2023-04-15T10:17:04.294Z,1.65
2023-04-15T10:19:36.442Z,1.65
2023-04-15T10:22:03.184Z,1.98
2023-04-15T10:24:31.944Z,1.90
2023-04-15T10:26:59.470Z,2.08
2023-04-15T10:29:27.331Z,1.90
2023-04-15T10:31:56.970Z,1.83
2023-04-15T10:34:24.356Z,1.60
2023-04-15T10:36:51.929Z,1.52
2023-04-15T10:39:33.913Z,1.50
2023-04-15T10:42:13.722Z,1.80
2023-04-15T10:44:42.274Z,1.63
2023-04-15T10:47:15.669Z,1.80
2023-04-15T10:49:50.333Z,1.58
2023-04-15T10:52:23.602Z,1.75
2023-04-15T10:54:50.073Z,1.50
2023-04-15T10:57:21.384Z,1.75
2023-04-15T10:59:59.736Z,1.83
2023-04-15T11:02:39.325Z,1.92
2023-04-15T11:05:06.013Z,2.10
2023-04-15T11:07:41.818Z,1.90
2023-04-15T11:10:14.258Z,2.00
2023-04-15T11:12:42.030Z,1.80
2023-04-15T11:15:27.402Z,1.85
2023-04-15T11:17:53.872Z,1.60
2023-04-15T11:20:20.728Z,1.60
2023-04-15T11:22:48.016Z,1.65
2023-04-15T11:27:40.985Z,1.50
2023-04-15T11:30:18.143Z,1.48
2023-04-15T11:32:44.738Z,2.92
2023-04-15T11:35:11.241Z,1.92
2023-04-15T11:37:37.705Z,1.80
2023-04-15T11:40:04.490Z,1.73
2023-04-15T11:42:42.769Z,1.60
2023-04-15T11:45:15.728Z,1.38
2023-04-15T11:47:42.922Z,1.60
2023-04-15T11:52:35.705Z,1.52
2023-04-15T11:55:03.518Z,1.48
2023-04-15T11:57:32.821Z,1.40
2023-04-15T12:00:00.466Z,1.40
2023-04-15T12:02:31.267Z,1.67
2023-04-15T12:05:05.279Z,1.58
2023-04-15T12:07:31.807Z,1.83
2023-04-15T12:09:58.618Z,1.50
2023-04-15T12:12:28.723Z,1.60
2023-04-15T12:14:57.065Z,1.40
2023-04-15T12:17:24.324Z,1.42
2023-04-15T12:19:56.114Z,1.52
2023-04-15T12:22:23.008Z,1.52
2023-04-15T12:24:54.342Z,1.20
2023-04-15T12:27:21.182Z,1.00
2023-04-15T12:29:47.727Z,1.27
2023-04-15T12:32:15.901Z,1.10
2023-04-15T12:34:43.524Z,1.10
2023-04-15T12:37:11.317Z,0.88
2023-04-15T12:39:42.061Z,0.90
2023-04-15T12:42:09.103Z,0.90
2023-04-15T12:44:36.702Z,1.20
2023-04-15T12:47:03.671Z,0.98
2023-04-15T12:49:30.837Z,0.80
2023-04-15T12:51:57.954Z,0.90
2023-04-15T12:54:24.482Z,0.90
2023-04-15T12:56:51.077Z,0.93
2023-04-15T12:59:20.362Z,1.05
2023-04-15T13:01:47.636Z,0.80
2023-04-15T13:04:14.695Z,0.88
2023-04-15T13:06:41.145Z,1.02
2023-04-15T13:09:07.591Z,0.88
2023-04-15T13:11:34.591Z,0.80
2023-04-15T13:14:01.924Z,1.00
2023-04-15T13:16:28.869Z,0.93
2023-04-15T13:18:55.525Z,0.85
2023-04-15T13:21:22.057Z,1.02
2023-04-15T13:23:48.882Z,0.90
2023-04-15T13:26:15.333Z,0.90
2023-04-15T13:28:41.781Z,0.80
2023-04-15T13:31:08.192Z,1.15
2023-04-15T13:33:34.668Z,1.55
2023-04-15T13:36:01.340Z,1.60
2023-04-15T13:38:27.773Z,1.50
2023-04-15T13:40:54.233Z,1.30
2023-04-15T13:43:22.159Z,1.30
2023-04-15T13:45:48.678Z,1.27
2023-04-15T13:48:15.460Z,1.45
2023-04-15T13:50:45.237Z,1.30
2023-04-15T13:53:12.240Z,1.50
2023-04-15T13:55:41.697Z,1.30
2023-04-15T13:58:08.668Z,1.42
2023-04-15T14:00:35.074Z,1.30
2023-04-15T14:03:01.553Z,1.40
2023-04-15T14:05:28.261Z,1.33
2023-04-15T14:07:54.716Z,1.45
2023-04-15T14:10:21.354Z,1.40
2023-04-15T14:12:47.860Z,1.38
2023-04-15T14:15:14.396Z,1.35
2023-04-15T14:17:42.419Z,1.40
2023-04-15T14:20:09.431Z,1.20
2023-04-15T14:22:36.092Z,1.30
2023-04-15T14:25:02.788Z,1.42
2023-04-15T14:27:29.257Z,1.20
2023-04-15T14:29:57.753Z,1.30
2023-04-15T14:32:25.349Z,1.30
2023-04-15T14:34:51.854Z,1.30
2023-04-15T14:37:18.284Z,1.42
2023-04-15T14:39:44.750Z,1.50
2023-04-15T14:42:11.237Z,1.30
2023-04-15T14:44:37.750Z,1.30
2023-04-15T14:47:04.242Z,1.30
2023-04-15T14:49:30.701Z,1.30
2023-04-15T14:51:57.234Z,1.25
2023-04-15T14:54:23.725Z,1.40
2023-04-15T14:56:50.232Z,1.30
2023-04-15T14:59:16.676Z,1.20
2023-04-15T15:01:43.194Z,1.10
2023-04-15T15:04:10.257Z,1.30
2023-04-15T15:06:36.888Z,1.20
2023-04-15T15:09:03.761Z,1.38
2023-04-15T15:11:30.458Z,1.27
2023-04-15T15:13:57.156Z,1.40
2023-04-15T15:16:23.767Z,1.27
2023-04-15T15:18:51.188Z,1.40
2023-04-15T15:23:44.571Z,1.27
2023-04-15T15:26:11.624Z,1.45
2023-04-15T15:28:38.090Z,1.50
2023-04-15T15:31:05.307Z,1.40
2023-04-15T15:33:32.744Z,1.38
2023-04-15T15:35:59.297Z,1.20
2023-04-15T15:38:26.277Z,1.30
2023-04-15T15:40:52.732Z,1.50
2023-04-15T15:43:19.259Z,1.50
2023-04-15T15:45:45.733Z,1.30
2023-04-15T15:48:12.344Z,1.70
2023-04-15T15:50:38.947Z,1.45
2023-04-15T15:53:05.617Z,1.40
2023-04-15T15:55:32.073Z,1.58
2023-04-15T15:57:58.479Z,1.52
2023-04-15T16:00:24.971Z,1.60
2023-04-15T16:03:04.979Z,1.40
2023-04-15T16:05:32.032Z,1.30
2023-04-15T16:07:58.905Z,1.52
2023-04-15T16:10:25.575Z,1.30
2023-04-15T16:12:52.018Z,1.30
2023-04-15T16:15:18.521Z,1.20
2023-04-15T16:17:45.016Z,1.20
2023-04-15T16:20:11.641Z,1.20
2023-04-15T16:22:38.811Z,1.17
2023-04-15T16:25:05.501Z,1.20
2023-04-15T16:27:32.220Z,1.10
2023-04-15T16:29:59.225Z,1.10
2023-04-15T16:32:26.055Z,1.10
2023-04-15T16:34:52.893Z,1.10
2023-04-15T16:37:20.221Z,1.00
2023-04-15T16:42:13.105Z,1.33
2023-04-15T16:44:39.589Z,1.10
2023-04-15T16:47:06.179Z,1.10
2023-04-15T16:49:34.802Z,1.20
2023-04-15T16:52:02.325Z,1.30
2023-04-15T16:54:29.749Z,1.60
2023-04-15T16:56:57.518Z,1.70
2023-04-15T16:59:24.067Z,1.80
2023-04-15T17:01:50.703Z,1.80
2023-04-15T17:04:17.247Z,1.70
2023-04-15T17:06:43.720Z,1.90
2023-04-15T17:09:10.135Z,1.90
2023-04-15T17:11:38.762Z,2.30
2023-04-15T17:14:05.921Z,2.35
2023-04-15T17:16:32.349Z,1.70
2023-04-15T17:18:58.765Z,2.03
2023-04-15T17:21:28.279Z,1.83
2023-04-15T17:23:55.165Z,1.90
2023-04-15T17:26:22.141Z,2.00
2023-04-15T17:28:48.630Z,1.70
2023-04-15T17:31:15.408Z,1.80
2023-04-15T17:33:56.354Z,1.65
2023-04-15T17:36:30.906Z,1.80
2023-04-15T17:38:57.344Z,1.67
2023-04-15T17:41:23.992Z,1.60
2023-04-15T17:43:50.546Z,1.80
2023-04-15T17:46:17.140Z,1.60
2023-04-15T17:48:43.608Z,1.70
2023-04-15T17:51:10.046Z,1.65
2023-04-15T17:53:36.503Z,1.85
2023-04-15T17:56:02.966Z,1.60
2023-04-15T17:58:30.127Z,1.63
2023-04-15T18:03:23.272Z,1.38
2023-04-15T18:05:49.798Z,1.60
2023-04-15T18:08:16.289Z,1.38
2023-04-15T18:10:42.701Z,1.55
2023-04-15T18:13:09.119Z,1.42
2023-04-15T18:15:35.870Z,1.60
2023-04-15T18:18:02.746Z,1.70
2023-04-15T18:20:29.376Z,1.50
2023-04-15T18:22:55.837Z,1.40
2023-04-15T18:25:22.409Z,1.50
2023-04-15T18:27:49.528Z,1.30
2023-04-15T18:30:15.937Z,1.52
2023-04-15T18:32:42.420Z,1.50
2023-04-15T18:35:09.103Z,1.13
2023-04-15T18:37:35.573Z,1.38
2023-04-15T18:40:02.175Z,1.60
2023-04-15T18:42:28.700Z,1.27
2023-04-15T18:44:55.309Z,1.20
2023-04-15T18:47:22.060Z,1.20
2023-04-15T18:49:48.525Z,1.23
2023-04-15T18:52:15.193Z,1.25
2023-04-15T18:54:41.648Z,1.20
2023-04-15T18:57:08.201Z,1.05
2023-04-15T18:59:34.875Z,1.10
2023-04-15T19:02:03.507Z,1.20
2023-04-15T19:04:30.067Z,1.30
2023-04-15T19:06:56.821Z,1.20
2023-04-15T19:09:23.259Z,1.15
2023-04-15T19:11:49.732Z,1.52
2023-04-15T19:14:17.136Z,0.95
2023-04-15T19:19:10.052Z,1.02
2023-04-15T19:21:36.514Z,1.08
2023-04-15T19:24:02.938Z,0.90
2023-04-15T19:26:29.393Z,1.00
2023-04-15T19:28:58.877Z,0.95
2023-04-15T19:31:26.406Z,1.00
2023-04-15T19:36:19.428Z,1.08
2023-04-15T19:38:45.992Z,1.00
2023-04-15T19:41:12.531Z,1.00
2023-04-15T19:43:38.999Z,1.00
2023-04-15T19:46:06.323Z,0.90
2023-04-15T19:48:32.841Z,1.02
2023-04-15T19:50:59.870Z,1.10
2023-04-15T19:53:26.409Z,0.95
2023-04-15T19:55:52.850Z,1.10
2023-04-15T19:58:19.319Z,0.93
2023-04-15T20:00:45.786Z,0.98
2023-04-15T20:03:12.412Z,1.00
2023-04-15T20:05:39.256Z,0.90
2023-04-15T20:08:05.710Z,0.90
2023-04-15T20:10:32.352Z,1.00
2023-04-15T20:12:58.978Z,1.00
2023-04-15T20:15:26.196Z,0.93
2023-04-15T20:17:52.752Z,0.85
2023-04-15T20:20:19.447Z,0.90
2023-04-15T20:22:46.052Z,0.90
2023-04-15T20:25:12.539Z,1.00
2023-04-15T20:27:39.222Z,0.95
2023-04-15T20:30:06.027Z,0.93
2023-04-15T20:32:36.087Z,0.80
2023-04-15T20:35:03.343Z,0.73
2023-04-15T20:37:30.122Z,1.00
2023-04-15T20:39:56.656Z,0.90
2023-04-15T20:42:23.200Z,0.70
2023-04-15T20:44:49.626Z,0.80
2023-04-15T20:47:16.500Z,0.80
2023-04-15T20:49:43.176Z,0.90
2023-04-15T20:52:09.714Z,0.90
2023-04-15T20:54:36.166Z,0.80
2023-04-15T20:57:02.746Z,0.80
2023-04-15T20:59:29.290Z,0.90
2023-04-15T21:01:56.996Z,0.90
2023-04-15T21:04:24.456Z,0.90
2023-04-15T21:09:19.001Z,0.80
2023-04-15T21:11:59.665Z,0.90
2023-04-15T21:14:27.364Z,0.70
2023-04-15T21:16:53.909Z,0.80
2023-04-15T21:19:20.504Z,0.77
2023-04-15T21:21:46.912Z,0.70
2023-04-15T21:24:13.405Z,0.77
2023-04-15T21:26:39.921Z,0.80
2023-04-15T21:29:08.675Z,0.70
2023-04-15T21:31:37.146Z,0.80
2023-04-15T21:34:03.676Z,0.80
2023-04-15T21:36:30.199Z,0.70
2023-04-15T21:38:56.608Z,0.80
2023-04-15T21:41:23.087Z,1.02
2023-04-15T21:43:49.593Z,0.70
2023-04-15T21:46:24.117Z,0.77
2023-04-15T21:48:54.409Z,0.70
2023-04-15T21:51:21.004Z,0.80
2023-04-15T21:53:47.619Z,0.90
2023-04-15T21:56:14.092Z,0.80
2023-04-15T21:58:40.602Z,0.70
2023-04-15T22:01:07.041Z,0.90
2023-04-15T22:03:34.530Z,0.95
2023-04-15T22:06:02.283Z,0.70
2023-04-15T22:10:55.147Z,1.02
2023-04-15T22:13:21.680Z,0.90
2023-04-15T22:15:48.218Z,0.70
2023-04-15T22:18:14.806Z,0.90
2023-04-15T22:20:41.484Z,1.00
2023-04-15T22:23:08.978Z,0.95
2023-04-15T22:25:37.019Z,1.33
2023-04-15T22:28:09.656Z,1.00
2023-04-15T22:30:39.713Z,0.80
2023-04-15T22:33:06.524Z,0.70
2023-04-15T22:35:34.240Z,0.90
2023-04-15T22:38:01.307Z,0.70
2023-04-15T22:40:28.514Z,0.70
2023-04-15T22:42:55.056Z,0.90
2023-04-15T22:45:21.463Z,1.45
2023-04-15T22:47:47.948Z,1.10
2023-04-15T22:50:14.442Z,1.20
2023-04-15T22:52:40.904Z,1.10
2023-04-15T22:55:07.747Z,1.15
2023-04-15T22:57:34.178Z,1.48
2023-04-15T23:00:00.629Z,1.23
2023-04-15T23:02:27.462Z,1.40
2023-04-15T23:04:54.244Z,1.05
2023-04-15T23:07:23.493Z,1.30
2023-04-15T23:09:49.898Z,1.40
2023-04-15T23:12:16.423Z,1.20
2023-04-15T23:14:44.050Z,1.30
2023-04-15T23:17:10.685Z,1.38
2023-04-15T23:19:37.105Z,1.35
2023-04-15T23:22:03.607Z,1.30
2023-04-15T23:24:30.098Z,1.30
2023-04-15T23:26:57.241Z,1.20
2023-04-15T23:29:23.653Z,1.50
2023-04-15T23:31:50.350Z,1.30
2023-04-15T23:34:16.878Z,1.02
2023-04-15T23:36:43.551Z,1.10
2023-04-15T23:39:10.250Z,1.15
2023-04-15T23:41:36.991Z,1.27
2023-04-15T23:44:03.484Z,1.33
2023-04-15T23:46:29.926Z,1.27
2023-04-15T23:48:56.436Z,1.30
2023-04-15T23:51:23.144Z,1.15
2023-04-15T23:53:49.632Z,1.00
2023-04-15T23:56:16.184Z,1.13
2023-04-15T23:58:42.615Z,1.13
